Time;durP1;ratioP1;P1;durP2;ratioP2;P2;SDS_P1;SDS_P2;PMS_P1;PMS_P2;Temp;Humidity;BMP_temperature;BMP_pressure;BME280_temperature;BME280_humidity;BME280_pressure;Samples;Min_cycle;Max_cycle;Signal;HPM_P1;HPM_P2
2023/10/08 00:01:42;;;;;;;3.40;1.37;;;;;;;;;;5052255;28;20469;-68
2023/10/08 00:04:10;;;;;;;3.90;1.83;;;;;;;;;;5049812;28;20532;-68
2023/10/08 00:06:37;;;;;;;4.27;1.67;;;;;;;;;;5048202;28;20842;-68
2023/10/08 00:09:07;;;;;;;3.40;1.43;;;;;;;;;;5053700;28;20450;-68
2023/10/08 00:11:37;;;;;;;6.00;1.67;;;;;;;;;;5050560;28;20442;-69
2023/10/08 00:14:08;;;;;;;2.10;1.30;;;;;;;;;;5047089;28;20461;-68
2023/10/08 00:16:38;;;;;;;3.60;1.70;;;;;;;;;;5053135;28;20450;-69
2023/10/08 00:19:09;;;;;;;3.50;1.90;;;;;;;;;;5051174;28;20462;-69
2023/10/08 00:21:38;;;;;;;2.27;1.50;;;;;;;;;;5053835;28;20433;-68
2023/10/08 00:24:06;;;;;;;3.03;1.97;;;;;;;;;;5053874;28;20461;-67
2023/10/08 00:26:34;;;;;;;4.00;1.50;;;;;;;;;;5053940;28;20482;-68
2023/10/08 00:29:06;;;;;;;3.63;1.90;;;;;;;;;;5053474;28;20446;-69
2023/10/08 00:31:37;;;;;;;4.07;2.10;;;;;;;;;;5053314;28;20458;-69
2023/10/08 00:34:06;;;;;;;5.37;2.40;;;;;;;;;;5050012;28;20565;-69
2023/10/08 00:36:34;;;;;;;5.13;1.83;;;;;;;;;;5050059;28;20553;-68
2023/10/08 00:39:07;;;;;;;4.47;2.20;;;;;;;;;;5054218;28;20533;-69
2023/10/08 00:41:38;;;;;;;2.07;1.10;;;;;;;;;;5053146;28;20513;-68
2023/10/08 00:44:08;;;;;;;4.07;2.63;;;;;;;;;;5052886;28;20568;-69
2023/10/08 00:46:47;;;;;;;5.20;2.13;;;;;;;;;;5053904;28;20445;-67
2023/10/08 00:49:26;;;;;;;4.80;1.97;;;;;;;;;;5042699;28;20442;-68
2023/10/08 00:52:00;;;;;;;3.00;1.47;;;;;;;;;;5045703;28;20951;-68
2023/10/08 00:54:32;;;;;;;3.40;1.33;;;;;;;;;;5051461;28;20502;-68
2023/10/08 00:57:03;;;;;;;5.47;1.73;;;;;;;;;;5053253;28;20516;-68
2023/10/08 00:59:44;;;;;;;4.40;2.30;;;;;;;;;;5038488;28;20896;-68
2023/10/08 01:02:14;;;;;;;4.07;1.70;;;;;;;;;;5051878;28;20473;-68
2023/10/08 01:04:43;;;;;;;3.20;1.43;;;;;;;;;;5050776;28;20474;-68
2023/10/08 01:07:15;;;;;;;4.30;1.60;;;;;;;;;;5053832;28;20453;-68
2023/10/08 01:09:43;;;;;;;4.30;1.57;;;;;;;;;;5039808;28;20497;-68
2023/10/08 01:12:15;;;;;;;3.83;1.43;;;;;;;;;;5043942;28;20864;-68
2023/10/08 01:14:46;;;;;;;3.13;1.70;;;;;;;;;;5053030;28;20857;-68
2023/10/08 01:17:15;;;;;;;5.70;2.10;;;;;;;;;;5050211;28;20504;-68
2023/10/08 01:19:45;;;;;;;2.77;1.30;;;;;;;;;;5053280;28;20446;-68
2023/10/08 01:22:18;;;;;;;5.73;2.50;;;;;;;;;;5053543;28;20446;-68
2023/10/08 01:24:45;;;;;;;2.93;1.63;;;;;;;;;;5042167;28;20547;-68
2023/10/08 01:27:12;;;;;;;3.47;1.70;;;;;;;;;;5053385;28;20446;-68
2023/10/08 01:29:43;;;;;;;2.33;1.13;;;;;;;;;;5053392;28;20859;-68
2023/10/08 01:32:15;;;;;;;4.67;1.17;;;;;;;;;;5040283;28;20451;-68
2023/10/08 01:34:45;;;;;;;3.70;1.30;;;;;;;;;;5048175;28;20478;-68
2023/10/08 01:37:13;;;;;;;4.50;1.73;;;;;;;;;;5051837;28;20468;-68
2023/10/08 01:39:42;;;;;;;2.80;1.20;;;;;;;;;;5052159;28;20449;-68
2023/10/08 01:42:16;;;;;;;3.70;1.47;;;;;;;;;;5047647;28;20953;-68
2023/10/08 01:44:45;;;;;;;4.40;1.50;;;;;;;;;;5051819;28;20466;-68
2023/10/08 01:47:12;;;;;;;2.30;1.33;;;;;;;;;;5052701;28;20453;-68
2023/10/08 01:49:42;;;;;;;2.53;1.07;;;;;;;;;;5046950;28;20476;-65
2023/10/08 01:52:14;;;;;;;3.50;2.00;;;;;;;;;;5039616;28;20557;-68
2023/10/08 01:54:44;;;;;;;3.83;1.50;;;;;;;;;;5051666;28;20835;-68
2023/10/08 01:57:12;;;;;;;2.50;1.50;;;;;;;;;;5039389;28;20450;-68
2023/10/08 01:59:39;;;;;;;3.70;1.77;;;;;;;;;;5041356;28;20968;-68
2023/10/08 02:02:06;;;;;;;5.87;1.97;;;;;;;;;;5052564;28;20438;-68
2023/10/08 02:04:35;;;;;;;7.50;2.30;;;;;;;;;;5052079;28;20465;-68
2023/10/08 02:07:03;;;;;;;2.73;1.50;;;;;;;;;;5047605;28;20548;-67
2023/10/08 02:09:30;;;;;;;2.83;1.50;;;;;;;;;;5052261;28;20893;-68
2023/10/08 02:11:59;;;;;;;2.27;1.20;;;;;;;;;;5051811;28;20442;-68
2023/10/08 02:14:30;;;;;;;6.13;2.00;;;;;;;;;;5050608;28;20477;-67
2023/10/08 02:17:01;;;;;;;4.60;2.20;;;;;;;;;;5051934;28;20509;-68
2023/10/08 02:19:28;;;;;;;2.60;1.90;;;;;;;;;;5051604;28;20516;-68
2023/10/08 02:21:55;;;;;;;3.07;1.30;;;;;;;;;;5049152;28;20890;-68
2023/10/08 02:24:23;;;;;;;3.40;1.70;;;;;;;;;;5050726;28;20470;-68
2023/10/08 02:26:51;;;;;;;2.00;1.10;;;;;;;;;;5052504;28;20495;-68
2023/10/08 02:29:19;;;;;;;3.40;1.50;;;;;;;;;;5050772;28;20462;-68
2023/10/08 02:31:47;;;;;;;5.47;1.13;;;;;;;;;;5051291;28;20453;-68
2023/10/08 02:34:15;;;;;;;3.27;1.27;;;;;;;;;;5050219;28;20466;-68
2023/10/08 02:36:42;;;;;;;6.70;1.60;;;;;;;;;;5050715;28;20581;-68
2023/10/08 02:39:16;;;;;;;3.50;1.93;;;;;;;;;;5051267;28;20822;-68
2023/10/08 02:41:45;;;;;;;4.20;1.30;;;;;;;;;;5047380;28;20846;-68
2023/10/08 02:44:13;;;;;;;3.03;1.33;;;;;;;;;;5038751;28;20921;-66
2023/10/08 02:46:42;;;;;;;4.53;1.70;;;;;;;;;;5050933;28;20453;-68
2023/10/08 02:49:11;;;;;;;4.33;1.40;;;;;;;;;;5051511;28;20470;-68
2023/10/08 02:51:38;;;;;;;3.13;1.43;;;;;;;;;;5050141;28;20469;-68
2023/10/08 02:54:06;;;;;;;3.73;1.60;;;;;;;;;;5051661;28;20962;-68
2023/10/08 02:56:35;;;;;;;3.73;1.50;;;;;;;;;;5051568;28;20485;-68
2023/10/08 02:59:03;;;;;;;3.57;2.20;;;;;;;;;;5045829;28;20469;-68
2023/10/08 03:01:33;;;;;;;3.27;1.53;;;;;;;;;;5049715;28;20435;-68
2023/10/08 03:04:11;;;;;;;3.93;1.77;;;;;;;;;;5048248;28;20576;-68
2023/10/08 03:06:42;;;;;;;3.13;1.70;;;;;;;;;;5051401;28;20452;-68
2023/10/08 03:09:09;;;;;;;4.00;1.40;;;;;;;;;;5051226;28;20533;-68
2023/10/08 03:11:37;;;;;;;3.57;1.47;;;;;;;;;;5052064;28;20443;-66
2023/10/08 03:14:04;;;;;;;3.53;1.43;;;;;;;;;;5039696;28;20529;-68
2023/10/08 03:16:35;;;;;;;3.73;1.20;;;;;;;;;;5050371;28;20859;-68
2023/10/08 03:19:05;;;;;;;4.97;2.33;;;;;;;;;;5048617;28;20499;-68
2023/10/08 03:21:48;;;;;;;2.77;1.70;;;;;;;;;;5045097;28;20458;-68
2023/10/08 03:24:29;;;;;;;3.20;1.43;;;;;;;;;;5050957;28;20497;-68
2023/10/08 03:27:05;;;;;;;4.13;1.43;;;;;;;;;;5050566;28;20594;-69
2023/10/08 03:29:33;;;;;;;4.43;0.90;;;;;;;;;;5051546;28;20480;-68
2023/10/08 03:32:05;;;;;;;3.97;1.37;;;;;;;;;;5051890;28;20446;-68
2023/10/08 03:34:35;;;;;;;5.53;2.10;;;;;;;;;;5039866;28;20473;-69
2023/10/08 03:37:06;;;;;;;2.90;1.53;;;;;;;;;;5052148;28;20484;-68
2023/10/08 03:39:50;;;;;;;3.60;1.43;;;;;;;;;;5042080;28;20454;-67
2023/10/08 03:42:21;;;;;;;1.83;1.10;;;;;;;;;;5049828;28;20481;-67
2023/10/08 03:44:51;;;;;;;3.63;1.57;;;;;;;;;;5050913;28;20466;-67
2023/10/08 03:47:18;;;;;;;2.60;1.03;;;;;;;;;;5051060;28;21011;-67
2023/10/08 03:49:50;;;;;;;4.97;1.87;;;;;;;;;;5051265;28;20770;-67
2023/10/08 03:52:17;;;;;;;4.47;1.53;;;;;;;;;;5043454;28;20462;-67
2023/10/08 03:54:48;;;;;;;3.20;1.40;;;;;;;;;;5051241;28;20466;-67
2023/10/08 03:57:40;;;;;;;4.87;1.50;;;;;;;;;;5039084;28;21024;-68
2023/10/08 04:00:09;;;;;;;3.60;1.47;;;;;;;;;;5049424;28;20557;-68
2023/10/08 04:02:41;;;;;;;2.93;1.23;;;;;;;;;;5051007;28;20814;-67
2023/10/08 04:05:19;;;;;;;4.17;1.80;;;;;;;;;;5050487;28;20485;-67
2023/10/08 04:10:49;;;;;;;2.50;1.37;;;;;;;;;;5049702;28;20807;-67
2023/10/08 04:13:16;;;;;;;2.73;1.30;;;;;;;;;;5052086;28;20863;-67
2023/10/08 04:15:44;;;;;;;2.70;1.33;;;;;;;;;;5047603;28;20478;-67
2023/10/08 04:18:11;;;;;;;4.37;1.87;;;;;;;;;;5038798;28;20458;-67
2023/10/08 04:20:39;;;;;;;4.60;1.37;;;;;;;;;;5047842;28;21820;-67
2023/10/08 04:23:13;;;;;;;3.57;1.33;;;;;;;;;;5047597;28;20461;-72
2023/10/08 04:25:42;;;;;;;3.63;1.77;;;;;;;;;;5047069;28;20474;-69
2023/10/08 04:28:14;;;;;;;4.47;1.30;;;;;;;;;;5038805;28;20481;-69
2023/10/08 04:30:42;;;;;;;4.10;1.60;;;;;;;;;;5049944;28;20465;-69
2023/10/08 04:33:12;;;;;;;4.13;2.10;;;;;;;;;;5051886;28;20450;-69
2023/10/08 04:35:47;;;;;;;3.33;1.23;;;;;;;;;;5053689;28;20498;-68
2023/10/08 04:38:18;;;;;;;4.73;1.83;;;;;;;;;;5053673;28;20453;-69
2023/10/08 04:40:48;;;;;;;3.67;1.40;;;;;;;;;;5047741;28;20462;-70
2023/10/08 04:43:21;;;;;;;4.30;1.60;;;;;;;;;;5054110;28;20826;-69
2023/10/08 04:45:49;;;;;;;4.57;1.77;;;;;;;;;;5042271;28;20434;-69
2023/10/08 04:48:20;;;;;;;4.30;1.90;;;;;;;;;;5054278;28;20450;-69
2023/10/08 04:50:57;;;;;;;3.40;1.73;;;;;;;;;;5052715;28;20441;-69
2023/10/08 04:53:31;;;;;;;2.80;1.70;;;;;;;;;;5049760;28;20776;-69
2023/10/08 04:55:59;;;;;;;3.10;1.53;;;;;;;;;;5049217;28;20486;-68
2023/10/08 04:58:33;;;;;;;2.70;1.60;;;;;;;;;;5051415;28;20485;-69
2023/10/08 05:01:17;;;;;;;2.80;1.30;;;;;;;;;;5051419;28;20960;-68
2023/10/08 05:03:56;;;;;;;5.07;2.33;;;;;;;;;;5041316;28;20469;-68
2023/10/08 05:09:38;;;;;;;3.90;1.67;;;;;;;;;;5150169;27;20656;-68
2023/10/08 05:12:10;;;;;;;3.80;1.40;;;;;;;;;;5150138;27;20556;-68
2023/10/08 05:14:45;;;;;;;4.60;1.17;;;;;;;;;;5157566;27;20889;-68
2023/10/08 05:17:21;;;;;;;4.50;1.43;;;;;;;;;;5165680;27;20459;-68
2023/10/08 05:19:56;;;;;;;3.07;1.50;;;;;;;;;;5171712;27;20957;-69
2023/10/08 05:22:44;;;;;;;4.13;1.10;;;;;;;;;;5164121;27;20448;-69
2023/10/08 05:25:35;;;;;;;4.87;1.53;;;;;;;;;;5168570;27;20551;-69
2023/10/08 05:28:09;;;;;;;3.20;0.90;;;;;;;;;;5152464;27;20501;-69
2023/10/08 05:30:41;;;;;;;3.20;1.70;;;;;;;;;;5164388;27;20535;-69
2023/10/08 05:35:54;;;;;;;5.00;1.30;;;;;;;;;;5150961;27;20513;-70
2023/10/08 05:38:59;;;;;;;3.87;1.47;;;;;;;;;;5161870;27;20501;-69
2023/10/08 05:41:38;;;;;;;2.93;1.57;;;;;;;;;;5160695;27;20452;-69
2023/10/08 05:44:23;;;;;;;1.97;1.20;;;;;;;;;;5157420;27;20828;-70
2023/10/08 05:49:54;;;;;;;5.30;1.50;;;;;;;;;;5135925;27;20448;-71
2023/10/08 05:52:40;;;;;;;2.50;1.70;;;;;;;;;;5164227;27;20452;-70
2023/10/08 05:55:25;;;;;;;2.47;1.57;;;;;;;;;;5156560;27;20457;-69
2023/10/08 05:58:02;;;;;;;4.07;1.23;;;;;;;;;;5163580;27;20441;-69
2023/10/08 06:03:46;;;;;;;4.30;1.50;;;;;;;;;;5155715;27;20603;-69
2023/10/08 06:09:20;;;;;;;2.60;1.07;;;;;;;;;;5166181;27;20473;-69
2023/10/08 06:12:06;;;;;;;2.10;1.10;;;;;;;;;;5160691;27;20763;-70
2023/10/08 06:14:52;;;;;;;3.40;1.87;;;;;;;;;;5169124;27;20462;-70
2023/10/08 06:17:33;;;;;;;7.03;1.97;;;;;;;;;;5169672;27;20505;-70
2023/10/08 06:20:16;;;;;;;3.20;1.33;;;;;;;;;;5145735;27;20813;-69
2023/10/08 06:22:43;;;;;;;2.90;1.90;;;;;;;;;;5154685;27;20542;-69
2023/10/08 06:25:18;;;;;;;2.67;1.33;;;;;;;;;;5148029;27;20545;-70
2023/10/08 06:27:45;;;;;;;3.43;1.50;;;;;;;;;;5140545;27;20480;-69
2023/10/08 06:30:16;;;;;;;2.53;1.37;;;;;;;;;;5158804;27;20461;-70
2023/10/08 06:32:44;;;;;;;3.60;1.43;;;;;;;;;;5161720;27;20513;-68
2023/10/08 06:35:17;;;;;;;4.27;1.60;;;;;;;;;;5144953;27;20527;-68
2023/10/08 06:37:44;;;;;;;2.37;1.53;;;;;;;;;;5157380;27;20890;-70
2023/10/08 06:40:40;;;;;;;3.27;1.73;;;;;;;;;;5147469;27;20459;-69
2023/10/08 06:43:03;;;;;;;3.20;1.87;;;;;;;;;;5150089;27;20792;-68
2023/10/08 06:45:32;;;;;;;3.37;1.27;;;;;;;;;;5153884;27;20514;-69
2023/10/08 06:48:06;;;;;;;3.10;1.60;;;;;;;;;;5155269;27;20474;-70
2023/10/08 06:50:35;;;;;;;4.63;1.97;;;;;;;;;;5143467;27;20449;-69
2023/10/08 06:53:06;;;;;;;3.63;1.80;;;;;;;;;;5158712;27;20496;-70
2023/10/08 06:55:35;;;;;;;5.00;1.23;;;;;;;;;;5148099;27;20607;-69
2023/10/08 06:58:05;;;;;;;1.77;0.87;;;;;;;;;;5151518;27;20447;-69
2023/10/08 07:00:40;;;;;;;2.00;0.90;;;;;;;;;;5146473;27;20453;-70
2023/10/08 07:03:10;;;;;;;4.90;2.07;;;;;;;;;;5153379;27;20825;-68
2023/10/08 07:05:40;;;;;;;4.30;1.50;;;;;;;;;;5146050;27;20473;-68
2023/10/08 07:08:08;;;;;;;2.10;0.97;;;;;;;;;;5159273;27;20518;-69
2023/10/08 07:10:35;;;;;;;2.73;1.47;;;;;;;;;;5159679;27;20454;-67
2023/10/08 07:13:03;;;;;;;2.10;1.00;;;;;;;;;;5161623;27;20430;-68
2023/10/08 07:15:32;;;;;;;2.40;1.40;;;;;;;;;;5158807;27;20484;-68
2023/10/08 07:18:09;;;;;;;2.57;1.50;;;;;;;;;;5155688;27;20525;-68
2023/10/08 07:20:39;;;;;;;2.57;1.37;;;;;;;;;;5142528;27;20888;-68
2023/10/08 07:23:11;;;;;;;7.80;1.83;;;;;;;;;;5160320;27;20456;-69
2023/10/08 07:25:39;;;;;;;3.07;1.40;;;;;;;;;;5156689;27;20449;-68
2023/10/08 07:28:12;;;;;;;3.90;2.00;;;;;;;;;;5154349;27;20496;-68
2023/10/08 07:30:43;;;;;;;4.73;1.90;;;;;;;;;;5159615;27;20481;-68
2023/10/08 07:33:17;;;;;;;2.80;1.10;;;;;;;;;;5154821;27;20456;-69
2023/10/08 07:35:51;;;;;;;3.50;1.87;;;;;;;;;;5158601;27;20931;-69
2023/10/08 07:38:18;;;;;;;4.40;1.50;;;;;;;;;;5149538;27;20897;-69
2023/10/08 07:40:45;;;;;;;4.10;3.70;;;;;;;;;;5148271;27;20450;-68
2023/10/08 07:43:13;;;;;;;5.90;1.50;;;;;;;;;;5155832;27;20442;-68
2023/10/08 07:45:45;;;;;;;4.00;1.80;;;;;;;;;;5141341;27;20454;-68
2023/10/08 07:48:15;;;;;;;4.53;2.47;;;;;;;;;;5152652;27;20477;-68
2023/10/08 07:50:43;;;;;;;10.23;2.07;;;;;;;;;;5141792;27;20451;-67
2023/10/08 07:53:17;;;;;;;4.60;2.00;;;;;;;;;;5146153;27;20505;-69
2023/10/08 07:55:45;;;;;;;4.03;1.60;;;;;;;;;;5142998;27;20441;-68
2023/10/08 07:58:14;;;;;;;4.30;1.40;;;;;;;;;;5151324;27;20471;-68
2023/10/08 08:00:41;;;;;;;4.40;1.90;;;;;;;;;;5141966;27;20450;-68
2023/10/08 08:03:08;;;;;;;2.10;1.30;;;;;;;;;;5151614;27;20455;-71
2023/10/08 08:05:38;;;;;;;6.47;2.00;;;;;;;;;;5150664;27;20454;-69
2023/10/08 08:08:06;;;;;;;4.07;2.00;;;;;;;;;;5141020;27;20473;-68
2023/10/08 08:10:36;;;;;;;5.37;1.37;;;;;;;;;;5144255;27;20455;-68
2023/10/08 08:13:05;;;;;;;2.87;1.43;;;;;;;;;;5150490;27;20442;-68
2023/10/08 08:15:33;;;;;;;3.80;1.50;;;;;;;;;;5155939;27;20491;-68
2023/10/08 08:18:00;;;;;;;3.67;1.30;;;;;;;;;;5149465;27;20465;-70
2023/10/08 08:20:38;;;;;;;3.00;1.60;;;;;;;;;;5136774;27;20847;-69
2023/10/08 08:23:10;;;;;;;4.43;1.47;;;;;;;;;;5139329;27;20985;-69
2023/10/08 08:25:45;;;;;;;5.20;2.40;;;;;;;;;;5152116;27;20533;-69
2023/10/08 08:28:16;;;;;;;4.33;1.70;;;;;;;;;;5139740;27;20474;-69
2023/10/08 08:30:46;;;;;;;3.70;1.50;;;;;;;;;;5146782;27;20430;-68
2023/10/08 08:33:16;;;;;;;5.70;2.43;;;;;;;;;;5141909;27;20453;-69
2023/10/08 08:35:45;;;;;;;8.57;2.80;;;;;;;;;;5150388;27;20519;-69
2023/10/08 08:38:13;;;;;;;4.00;2.00;;;;;;;;;;5149345;27;20872;-69
2023/10/08 08:40:40;;;;;;;10.33;2.10;;;;;;;;;;5154384;27;20453;-70
2023/10/08 08:43:09;;;;;;;2.97;1.90;;;;;;;;;;5145339;27;20430;-69
2023/10/08 08:45:40;;;;;;;4.10;1.50;;;;;;;;;;5150606;27;20484;-68
2023/10/08 08:48:08;;;;;;;5.63;2.73;;;;;;;;;;5152597;27;20847;-68
2023/10/08 08:50:37;;;;;;;4.80;2.30;;;;;;;;;;5155253;27;20465;-68
2023/10/08 08:53:04;;;;;;;4.07;2.50;;;;;;;;;;5151237;27;20477;-68
2023/10/08 08:55:35;;;;;;;6.83;2.13;;;;;;;;;;5145183;27;20475;-68
2023/10/08 08:58:05;;;;;;;5.00;2.43;;;;;;;;;;5150353;27;20454;-68
2023/10/08 09:00:32;;;;;;;4.03;1.60;;;;;;;;;;5148097;27;20453;-69
2023/10/08 09:03:04;;;;;;;5.73;2.90;;;;;;;;;;5150296;27;20457;-69
2023/10/08 09:05:34;;;;;;;4.80;2.47;;;;;;;;;;5149791;27;20466;-69
2023/10/08 09:08:04;;;;;;;5.67;2.63;;;;;;;;;;5155200;27;20469;-69
2023/10/08 09:10:36;;;;;;;5.53;2.50;;;;;;;;;;5146139;27;20442;-69
2023/10/08 09:13:07;;;;;;;7.53;3.27;;;;;;;;;;5150345;27;20443;-69
2023/10/08 09:15:34;;;;;;;4.63;1.80;;;;;;;;;;5146028;27;20461;-69
2023/10/08 09:18:04;;;;;;;3.30;2.03;;;;;;;;;;5155106;27;20477;-69
2023/10/08 09:20:31;;;;;;;3.10;1.53;;;;;;;;;;5144282;27;20503;-68
2023/10/08 09:23:08;;;;;;;5.30;2.20;;;;;;;;;;5158346;27;20515;-69
2023/10/08 09:25:35;;;;;;;3.33;1.67;;;;;;;;;;5155338;27;20486;-69
2023/10/08 09:28:02;;;;;;;4.10;1.90;;;;;;;;;;5144204;27;20440;-69
2023/10/08 09:30:31;;;;;;;5.20;1.70;;;;;;;;;;5142877;27;20454;-69
2023/10/08 09:32:58;;;;;;;3.10;1.57;;;;;;;;;;5148827;27;20434;-69
2023/10/08 09:35:26;;;;;;;3.37;1.97;;;;;;;;;;5145843;27;20461;-69
2023/10/08 09:37:54;;;;;;;6.13;1.83;;;;;;;;;;5154875;27;20462;-70
2023/10/08 09:40:22;;;;;;;5.20;2.07;;;;;;;;;;5159705;27;20441;-69
2023/10/08 09:42:49;;;;;;;4.27;1.40;;;;;;;;;;5159269;27;20447;-69
2023/10/08 09:45:17;;;;;;;4.67;1.90;;;;;;;;;;5154591;27;20489;-69
2023/10/08 09:47:54;;;;;;;3.50;2.00;;;;;;;;;;5149821;27;20459;-70
2023/10/08 09:50:24;;;;;;;3.23;1.60;;;;;;;;;;5154050;27;20489;-70
2023/10/08 09:52:56;;;;;;;9.90;2.10;;;;;;;;;;5156363;27;20457;-70
2023/10/08 09:55:25;;;;;;;5.70;1.77;;;;;;;;;;5159525;27;20564;-69
2023/10/08 09:57:55;;;;;;;5.20;2.13;;;;;;;;;;5155700;27;20545;-70
2023/10/08 10:00:30;;;;;;;4.23;1.90;;;;;;;;;;5149807;27;20438;-70
2023/10/08 10:03:01;;;;;;;3.87;1.73;;;;;;;;;;5159523;27;20493;-70
2023/10/08 10:05:30;;;;;;;6.47;2.37;;;;;;;;;;5160604;27;20473;-72
2023/10/08 10:07:58;;;;;;;7.53;2.37;;;;;;;;;;5160799;27;20452;-69
2023/10/08 10:10:30;;;;;;;6.63;3.10;;;;;;;;;;5162268;27;20473;-69
2023/10/08 10:13:00;;;;;;;9.67;2.73;;;;;;;;;;5156494;27;20446;-69
2023/10/08 10:15:30;;;;;;;3.53;2.20;;;;;;;;;;5163198;27;20454;-69
2023/10/08 10:18:00;;;;;;;5.63;2.47;;;;;;;;;;5148633;27;20441;-69
2023/10/08 10:20:27;;;;;;;11.93;3.50;;;;;;;;;;5152878;27;20442;-69
2023/10/08 10:22:54;;;;;;;5.50;2.40;;;;;;;;;;5153046;27;20458;-69
2023/10/08 10:25:37;;;;;;;4.27;1.80;;;;;;;;;;5147812;27;21030;-69
2023/10/08 10:28:22;;;;;;;6.83;2.50;;;;;;;;;;5151808;27;20481;-69
2023/10/08 10:30:50;;;;;;;4.83;1.60;;;;;;;;;;5162583;27;20437;-69
2023/10/08 10:33:18;;;;;;;7.47;2.17;;;;;;;;;;5161122;27;20840;-69
2023/10/08 10:35:50;;;;;;;7.23;2.73;;;;;;;;;;5157945;27;20458;-69
2023/10/08 10:38:20;;;;;;;3.93;2.00;;;;;;;;;;5162114;27;20639;-68
2023/10/08 10:40:56;;;;;;;6.00;2.40;;;;;;;;;;5149802;27;20434;-68
2023/10/08 10:43:31;;;;;;;4.63;2.00;;;;;;;;;;5149699;27;20971;-69
2023/10/08 10:45:59;;;;;;;3.27;1.80;;;;;;;;;;5161593;27;20453;-69
2023/10/08 10:48:34;;;;;;;10.70;3.00;;;;;;;;;;5161483;27;20805;-69
2023/10/08 10:51:10;;;;;;;6.23;2.40;;;;;;;;;;5152389;27;20529;-68
2023/10/08 10:53:44;;;;;;;4.83;2.37;;;;;;;;;;5150628;27;21882;-68
2023/10/08 10:56:18;;;;;;;4.10;2.27;;;;;;;;;;5154918;27;20799;-68
2023/10/08 10:58:45;;;;;;;4.20;1.70;;;;;;;;;;5161165;27;20445;-68
2023/10/08 11:01:23;;;;;;;6.50;2.30;;;;;;;;;;5163283;27;20446;-68
2023/10/08 11:03:52;;;;;;;5.77;2.30;;;;;;;;;;5163213;27;20511;-68
2023/10/08 11:06:22;;;;;;;3.63;1.83;;;;;;;;;;5160226;27;20434;-70
2023/10/08 11:08:50;;;;;;;5.63;2.53;;;;;;;;;;5150752;27;20458;-68
2023/10/08 11:11:18;;;;;;;6.37;2.93;;;;;;;;;;5156225;27;20443;-68
2023/10/08 11:13:54;;;;;;;5.20;2.17;;;;;;;;;;5153577;27;20518;-68
2023/10/08 11:16:24;;;;;;;4.90;1.83;;;;;;;;;;5154072;27;20457;-70
2023/10/08 11:18:57;;;;;;;3.50;1.80;;;;;;;;;;5154926;27;20461;-69
2023/10/08 11:21:25;;;;;;;3.83;1.87;;;;;;;;;;5150878;27;20567;-68
2023/10/08 11:23:55;;;;;;;5.13;2.47;;;;;;;;;;5150409;27;21106;-68
2023/10/08 11:26:31;;;;;;;5.03;2.57;;;;;;;;;;5143143;27;20438;-68
2023/10/08 11:29:00;;;;;;;7.70;3.07;;;;;;;;;;5156349;27;20500;-69
2023/10/08 11:31:28;;;;;;;2.70;1.63;;;;;;;;;;5151387;27;20446;-69
2023/10/08 11:34:01;;;;;;;5.03;2.27;;;;;;;;;;5148493;27;20462;-70
2023/10/08 11:36:30;;;;;;;5.13;2.37;;;;;;;;;;5152561;27;20542;-69
2023/10/08 11:39:01;;;;;;;4.17;2.20;;;;;;;;;;5159111;27;20430;-69
2023/10/08 11:41:30;;;;;;;7.40;3.27;;;;;;;;;;5148930;27;20438;-69
2023/10/08 11:43:58;;;;;;;3.67;2.03;;;;;;;;;;5160028;27;21062;-69
2023/10/08 11:46:32;;;;;;;6.40;2.27;;;;;;;;;;5151207;27;20446;-69
2023/10/08 11:49:05;;;;;;;6.07;2.27;;;;;;;;;;5153452;27;20441;-70
2023/10/08 11:51:33;;;;;;;6.40;2.47;;;;;;;;;;5165100;27;20433;-69
2023/10/08 11:54:00;;;;;;;5.20;2.20;;;;;;;;;;5145172;27;20458;-70
2023/10/08 11:56:30;;;;;;;3.13;1.80;;;;;;;;;;5149788;27;20454;-69
2023/10/08 11:58:57;;;;;;;4.70;1.93;;;;;;;;;;5156814;27;20511;-69
2023/10/08 12:01:24;;;;;;;5.47;1.57;;;;;;;;;;5161479;27;20438;-69
2023/10/08 12:03:52;;;;;;;3.20;1.97;;;;;;;;;;5156173;27;20541;-69
2023/10/08 12:06:21;;;;;;;5.53;2.10;;;;;;;;;;5157307;27;20476;-69
2023/10/08 12:08:53;;;;;;;5.10;2.53;;;;;;;;;;5154626;27;20449;-69
2023/10/08 12:11:22;;;;;;;5.40;2.33;;;;;;;;;;5144844;27;20422;-69
2023/10/08 12:13:51;;;;;;;6.70;2.43;;;;;;;;;;5158394;27;20466;-68
2023/10/08 12:16:22;;;;;;;3.07;1.80;;;;;;;;;;5147345;27;20580;-70
2023/10/08 12:18:53;;;;;;;3.80;1.70;;;;;;;;;;5147698;27;20667;-70
2023/10/08 12:21:21;;;;;;;4.90;2.10;;;;;;;;;;5148853;27;20499;-70
2023/10/08 12:23:51;;;;;;;5.20;2.13;;;;;;;;;;5153790;27;20473;-70
2023/10/08 12:26:18;;;;;;;5.33;2.40;;;;;;;;;;5153924;27;20530;-70
2023/10/08 12:28:48;;;;;;;4.77;2.23;;;;;;;;;;5157607;27;20445;-71
2023/10/08 12:31:15;;;;;;;3.30;1.63;;;;;;;;;;5155482;27;20477;-70
2023/10/08 12:33:44;;;;;;;6.10;2.30;;;;;;;;;;5156724;27;20483;-70
2023/10/08 12:36:16;;;;;;;3.03;1.63;;;;;;;;;;5150872;27;20502;-70
2023/10/08 12:38:47;;;;;;;4.13;2.40;;;;;;;;;;5139628;27;20533;-71
2023/10/08 12:41:13;;;;;;;4.80;1.80;;;;;;;;;;5151875;27;20441;-71
2023/10/08 12:43:44;;;;;;;5.40;2.10;;;;;;;;;;5147100;27;20461;-71
2023/10/08 12:46:18;;;;;;;2.30;1.73;;;;;;;;;;5153787;27;20438;-71
2023/10/08 12:48:47;;;;;;;6.93;2.20;;;;;;;;;;5150707;27;20488;-70
2023/10/08 12:51:14;;;;;;;5.03;1.90;;;;;;;;;;5146910;27;20476;-71
2023/10/08 12:53:50;;;;;;;5.37;2.10;;;;;;;;;;5150606;27;20462;-73
2023/10/08 12:56:21;;;;;;;3.73;1.80;;;;;;;;;;5142489;27;21126;-70
2023/10/08 12:58:49;;;;;;;3.70;1.83;;;;;;;;;;5151363;27;20830;-70
2023/10/08 13:01:18;;;;;;;4.50;1.87;;;;;;;;;;5150985;27;20449;-71
2023/10/08 13:03:48;;;;;;;3.90;1.80;;;;;;;;;;5149367;27;20473;-71
2023/10/08 13:06:21;;;;;;;3.47;1.80;;;;;;;;;;5150290;27;20461;-71
2023/10/08 13:08:49;;;;;;;3.30;1.60;;;;;;;;;;5152490;27;20449;-71
2023/10/08 13:11:22;;;;;;;3.97;2.20;;;;;;;;;;5152601;27;20481;-71
2023/10/08 13:13:50;;;;;;;6.50;2.43;;;;;;;;;;5154328;27;20454;-71
2023/10/08 13:16:17;;;;;;;5.37;2.10;;;;;;;;;;5142898;27;20552;-71
2023/10/08 13:18:45;;;;;;;5.13;2.13;;;;;;;;;;5150552;27;20881;-71
2023/10/08 13:21:13;;;;;;;7.83;1.77;;;;;;;;;;5139820;27;20455;-71
2023/10/08 13:23:41;;;;;;;3.93;1.60;;;;;;;;;;5143204;27;20473;-71
2023/10/08 13:26:08;;;;;;;5.20;2.33;;;;;;;;;;5149485;27;20513;-71
2023/10/08 13:28:35;;;;;;;3.10;1.47;;;;;;;;;;5144608;27;20441;-71
2023/10/08 13:31:09;;;;;;;4.20;1.50;;;;;;;;;;5155282;27;20473;-70
2023/10/08 13:33:38;;;;;;;4.70;1.40;;;;;;;;;;5146670;27;20467;-70
2023/10/08 13:36:08;;;;;;;3.83;1.70;;;;;;;;;;5143031;27;20443;-70
2023/10/08 13:38:36;;;;;;;5.60;1.73;;;;;;;;;;5149576;27;20452;-70
2023/10/08 13:41:03;;;;;;;6.63;2.10;;;;;;;;;;5157616;27;20926;-72
2023/10/08 13:43:34;;;;;;;3.63;1.80;;;;;;;;;;5154620;27;20872;-71
2023/10/08 13:46:12;;;;;;;4.73;2.00;;;;;;;;;;5151879;27;20457;-71
2023/10/08 13:48:40;;;;;;;6.10;1.87;;;;;;;;;;5154013;27;20476;-71
2023/10/08 13:51:13;;;;;;;2.80;1.47;;;;;;;;;;5152423;27;20472;-71
2023/10/08 13:53:40;;;;;;;3.60;1.50;;;;;;;;;;5151773;27;20580;-71
2023/10/08 13:56:11;;;;;;;5.30;2.00;;;;;;;;;;5156557;27;20467;-71
2023/10/08 13:58:41;;;;;;;4.63;1.97;;;;;;;;;;5157104;27;20445;-70
2023/10/08 14:01:19;;;;;;;3.73;1.93;;;;;;;;;;5143612;27;20487;-70
2023/10/08 14:03:47;;;;;;;6.60;1.87;;;;;;;;;;5145132;27;20559;-71
2023/10/08 14:06:16;;;;;;;6.27;2.43;;;;;;;;;;5145080;27;20896;-71
2023/10/08 14:08:44;;;;;;;4.73;1.60;;;;;;;;;;5154389;27;20564;-72
2023/10/08 14:11:13;;;;;;;6.17;1.80;;;;;;;;;;5147469;27;20484;-70
2023/10/08 14:13:42;;;;;;;4.03;1.90;;;;;;;;;;5148251;27;20560;-71
2023/10/08 14:16:14;;;;;;;4.03;1.70;;;;;;;;;;5156246;27;20453;-70
2023/10/08 14:18:41;;;;;;;6.50;2.23;;;;;;;;;;5147293;27;20476;-70
2023/10/08 14:21:10;;;;;;;4.73;2.27;;;;;;;;;;5154305;27;20816;-71
2023/10/08 14:23:38;;;;;;;5.53;1.70;;;;;;;;;;5214321;22;20419;-66
2023/10/08 14:26:06;;;;;;;3.97;1.53;;;;;;;;;;5149366;27;20451;-66
2023/10/08 14:31:22;;;;;;;3.13;1.67;;;;;;;;;;5145766;27;20847;-67
2023/10/08 14:34:05;;;;;;;4.03;2.03;;;;;;;;;;5137268;27;21016;-66
2023/10/08 14:44:50;;;;;;;4.67;1.90;;;;;;;;;;5124101;27;20448;-66
2023/10/08 14:47:19;;;;;;;12.00;3.00;;;;;;;;;;5126620;27;20564;-66
2023/10/08 14:49:46;;;;;;;4.53;1.77;;;;;;;;;;5130490;27;20463;-66
2023/10/08 14:52:14;;;;;;;3.47;1.67;;;;;;;;;;5129083;27;20465;-66
2023/10/08 14:54:42;;;;;;;6.07;2.60;;;;;;;;;;5131065;27;20480;-66
2023/10/08 14:57:12;;;;;;;7.10;2.13;;;;;;;;;;5124600;27;20454;-66
2023/10/08 14:59:39;;;;;;;2.70;1.53;;;;;;;;;;5124569;27;20862;-66
2023/10/08 15:02:07;;;;;;;4.67;1.80;;;;;;;;;;5126134;27;20987;-66
2023/10/08 15:04:39;;;;;;;8.27;2.23;;;;;;;;;;5128657;27;20880;-66
2023/10/08 15:07:08;;;;;;;3.43;2.03;;;;;;;;;;5112210;27;20464;-66
2023/10/08 15:09:35;;;;;;;5.97;2.00;;;;;;;;;;5122460;27;20479;-66
2023/10/08 15:12:02;;;;;;;5.07;1.83;;;;;;;;;;5125112;27;20568;-67
2023/10/08 15:14:31;;;;;;;9.80;2.73;;;;;;;;;;5122212;27;20934;-67
2023/10/08 15:16:58;;;;;;;4.07;1.60;;;;;;;;;;5124432;27;20898;-66
2023/10/08 15:19:25;;;;;;;3.87;1.53;;;;;;;;;;5127206;27;20453;-67
2023/10/08 15:21:54;;;;;;;6.50;1.83;;;;;;;;;;5129058;27;20638;-66
2023/10/08 15:24:22;;;;;;;5.03;2.57;;;;;;;;;;5122426;27;20476;-67
2023/10/08 15:26:49;;;;;;;7.60;1.80;;;;;;;;;;5131173;27;20439;-66
2023/10/08 15:29:16;;;;;;;7.50;2.80;;;;;;;;;;5120606;27;20201;-67
2023/10/08 15:31:44;;;;;;;5.53;1.60;;;;;;;;;;5127626;27;20213;-67
2023/10/08 15:34:12;;;;;;;4.47;2.00;;;;;;;;;;5123095;27;20225;-67